Time;durP1;ratioP1;P1;durP2;ratioP2;P2;SDS_P1;SDS_P2;PMS_P1;PMS_P2;Temp;Humidity;BMP_temperature;BMP_pressure;BME280_temperature;BME280_humidity;BME280_pressure;Samples;Min_cycle;Max_cycle;Signal;HPM_P1;HPM_P2
2023/05/11 08:06:33;;;;;;;106.95;47.15;;;;;;;12.00;100.00;101369.41;5074736;28;20394;-74
2023/05/11 08:08:58;;;;;;;106.35;52.08;;;;;;;11.98;100.00;101365.25;5089954;28;20494;-72
2023/05/11 08:11:25;;;;;;;110.53;52.35;;;;;;;11.97;100.00;101366.28;5089800;28;20024;-73
2023/05/11 08:13:50;;;;;;;101.97;61.50;;;;;;;11.87;100.00;101364.88;5088634;28;20031;-72
2023/05/11 08:16:16;;;;;;;96.47;59.53;;;;;;;11.85;100.00;101371.56;5067383;28;20098;-74
2023/05/11 08:18:41;;;;;;;101.63;60.65;;;;;;;11.83;100.00;101363.66;5050274;28;20029;-73
2023/05/11 08:21:06;;;;;;;97.25;59.17;;;;;;;11.85;100.00;101372.41;5049873;28;20037;-73
2023/05/11 08:23:32;;;;;;;97.70;61.90;;;;;;;11.84;100.00;101364.50;5058187;28;20025;-74
2023/05/11 08:25:57;;;;;;;105.45;62.00;;;;;;;11.86;100.00;101367.81;5068623;28;20029;-74
2023/05/11 08:28:22;;;;;;;106.60;54.95;;;;;;;11.88;100.00;101371.97;5068826;28;20551;-75
2023/05/11 08:30:58;;;;;;;104.10;63.25;;;;;;;11.93;100.00;101373.22;5069406;28;20362;-74
2023/05/11 08:33:24;;;;;;;98.65;61.08;;;;;;;11.87;100.00;101370.28;5057803;28;20040;-73
2023/05/11 08:35:50;;;;;;;97.38;61.03;;;;;;;11.93;100.00;101378.66;5054678;28;20443;-77
2023/05/11 08:38:17;;;;;;;103.57;61.90;;;;;;;11.94;100.00;101367.56;5059482;28;20107;-73
2023/05/11 08:40:46;;;;;;;105.32;62.28;;;;;;;11.97;100.00;101363.56;5068863;28;20032;-75
2023/05/11 08:43:16;;;;;;;101.10;62.50;;;;;;;11.99;100.00;101366.91;5068591;28;20479;-75
2023/05/11 08:45:46;;;;;;;98.35;62.17;;;;;;;12.05;100.00;101363.31;5067350;28;20472;-74
2023/05/11 08:48:19;;;;;;;108.55;62.15;;;;;;;12.09;100.00;101367.22;5067058;28;20044;-74
2023/05/11 08:50:45;;;;;;;98.03;60.83;;;;;;;12.14;100.00;101369.25;5053824;28;20090;-74
2023/05/11 08:53:11;;;;;;;97.60;61.00;;;;;;;12.08;100.00;101376.44;5046922;28;20469;-74
2023/05/11 08:55:39;;;;;;;103.78;62.78;;;;;;;12.15;100.00;101376.34;5048786;28;20025;-76
2023/05/11 08:58:06;;;;;;;101.78;63.22;;;;;;;12.18;100.00;101368.63;5048455;28;20033;-76
2023/05/11 09:00:32;;;;;;;105.65;61.00;;;;;;;12.17;100.00;101375.09;5047046;28;20068;-75
2023/05/11 09:02:59;;;;;;;102.00;62.83;;;;;;;12.23;100.00;101376.91;5048021;28;20029;-75
2023/05/11 09:05:25;;;;;;;99.38;62.03;;;;;;;12.29;100.00;101382.47;5059550;28;20063;-75
2023/05/11 09:07:54;;;;;;;111.60;63.80;;;;;;;12.39;100.00;101382.81;5068046;28;20029;-73
2023/05/11 09:10:19;;;;;;;99.53;62.35;;;;;;;12.41;100.00;101383.44;5066925;28;20034;-73
2023/05/11 09:12:45;;;;;;;109.22;66.07;;;;;;;12.47;100.00;101379.81;5068269;28;20469;-77
2023/05/11 09:15:11;;;;;;;100.50;61.90;;;;;;;12.45;100.00;101376.47;5066484;28;20110;-76
2023/05/11 09:17:36;;;;;;;91.10;60.22;;;;;;;12.47;100.00;101379.81;5056365;28;20041;-73
2023/05/11 09:20:04;;;;;;;104.35;63.10;;;;;;;12.60;100.00;101386.97;5049003;28;20071;-74
2023/05/11 09:22:39;;;;;;;109.97;65.63;;;;;;;12.68;100.00;101381.25;5036554;28;20162;-72
2023/05/11 09:25:09;;;;;;;103.45;63.45;;;;;;;12.74;100.00;101374.94;5033255;28;20036;-75
2023/05/11 09:27:40;;;;;;;101.22;62.42;;;;;;;12.80;100.00;101386.75;5034999;28;20029;-74
2023/05/11 09:30:13;;;;;;;96.90;59.92;;;;;;;12.77;100.00;101389.91;5034582;28;20033;-75
2023/05/11 09:32:56;;;;;;;101.82;63.25;;;;;;;12.86;100.00;101385.88;5034820;28;20029;-72
2023/05/11 09:35:32;;;;;;;90.15;57.42;;;;;;;12.84;100.00;101382.53;5035280;28;20037;-77
2023/05/11 09:38:05;;;;;;;92.72;60.30;;;;;;;12.89;100.00;101376.41;5036454;28;20029;-76
2023/05/11 09:40:32;;;;;;;90.15;56.88;;;;;;;12.82;100.00;101381.94;5042083;28;20037;-74
2023/05/11 09:42:58;;;;;;;90.47;59.55;;;;;;;12.82;100.00;101381.09;5034342;28;20088;-72
2023/05/11 09:45:43;;;;;;;88.13;57.47;;;;;;;12.84;100.00;101384.41;5034418;28;20029;-74
2023/05/11 09:48:24;;;;;;;89.55;57.10;;;;;;;12.82;100.00;101381.09;5034224;28;20108;-75
2023/05/11 09:50:57;;;;;;;93.93;58.35;;;;;;;12.80;100.00;101381.31;5034275;28;20036;-75
2023/05/11 09:53:36;;;;;;;91.60;59.30;;;;;;;12.81;100.00;101388.41;5033726;28;20041;-72
2023/05/11 09:56:03;;;;;;;88.38;56.15;;;;;;;12.79;100.00;101386.97;5033971;28;20037;-74
2023/05/11 09:58:45;;;;;;;92.15;58.42;;;;;;;12.85;100.00;101386.91;5034211;28;20033;-74
2023/05/11 10:01:10;;;;;;;92.97;59.05;;;;;;;12.89;100.00;101395.44;5029932;28;20045;-75
2023/05/11 10:03:45;;;;;;;86.63;56.40;;;;;;;12.91;100.00;101394.16;5033891;28;20033;-75
2023/05/11 10:06:10;;;;;;;88.22;56.70;;;;;;;12.90;100.00;101392.47;5032529;28;20409;-73
2023/05/11 10:08:36;;;;;;;87.47;55.15;;;;;;;12.93;100.00;101389.31;5032689;28;20033;-74
2023/05/11 10:11:02;;;;;;;81.43;55.50;;;;;;;12.89;100.00;101390.84;5032702;28;20429;-73
2023/05/11 10:13:29;;;;;;;84.60;55.05;;;;;;;12.90;100.00;101384.34;5033926;28;20029;-72
2023/05/11 10:15:56;;;;;;;87.53;55.72;;;;;;;12.93;100.00;101383.88;5033457;28;20033;-72
2023/05/11 10:18:22;;;;;;;77.78;54.40;;;;;;;12.98;100.00;101390.53;5033285;28;20041;-74
2023/05/11 10:20:48;;;;;;;72.13;50.25;;;;;;;12.94;100.00;101393.69;5033423;28;20469;-74
2023/05/11 10:23:15;;;;;;;74.00;49.22;;;;;;;12.97;100.00;101394.28;5045749;28;20115;-72
2023/05/11 10:25:40;;;;;;;64.68;46.15;;;;;;;13.01;100.00;101396.31;5052271;28;20103;-74
2023/05/11 10:28:07;;;;;;;67.93;46.28;;;;;;;13.18;100.00;101396.53;5051093;28;20056;-73
2023/05/11 10:30:33;;;;;;;69.63;46.95;;;;;;;13.24;100.00;101394.78;5052196;28;20460;-73
2023/05/11 10:33:02;;;;;;;70.00;47.05;;;;;;;13.30;100.00;101397.41;5053491;28;20025;-75
2023/05/11 10:35:29;;;;;;;67.75;47.47;;;;;;;13.33;100.00;101393.44;5053479;28;20033;-82
2023/05/11 10:37:55;;;;;;;72.85;48.30;;;;;;;13.36;100.00;101389.44;5038259;28;20073;-75
2023/05/11 10:40:21;;;;;;;73.70;48.63;;;;;;;13.36;100.00;101394.88;5031884;28;20033;-71
2023/05/11 10:43:05;;;;;;;83.13;51.90;;;;;;;13.46;100.00;101389.72;5033080;28;20083;-72
2023/05/11 10:45:43;;;;;;;81.97;52.03;;;;;;;13.42;100.00;101393.94;5032806;28;20540;-72
2023/05/11 10:48:30;;;;;;;77.70;50.70;;;;;;;13.39;100.00;101391.69;5033722;28;20465;-74
2023/05/11 10:51:22;;;;;;;82.68;51.35;;;;;;;13.47;100.00;101389.47;5032467;28;20025;-73
2023/05/11 10:54:09;;;;;;;81.35;53.38;;;;;;;13.58;100.00;101392.47;5032322;28;20117;-74
2023/05/11 10:57:05;;;;;;;76.40;49.17;;;;;;;13.52;100.00;101394.22;5034673;28;20025;-73
2023/05/11 10:59:56;;;;;;;83.85;51.60;;;;;;;13.54;100.00;101386.69;5037177;28;20040;-74
2023/05/11 11:02:22;;;;;;;75.68;51.42;;;;;;;13.60;100.00;101383.03;5030924;28;20048;-72
2023/05/11 11:04:51;;;;;;;73.10;48.70;;;;;;;13.59;100.00;101389.53;5032750;28;20045;-75
2023/05/11 11:07:18;;;;;;;70.35;48.08;;;;;;;13.65;100.00;101377.72;5031860;28;20416;-76
2023/05/11 11:10:05;;;;;;;77.50;48.60;;;;;;;13.78;100.00;101373.13;5031731;28;20079;-73
2023/05/11 11:12:33;;;;;;;73.90;48.25;;;;;;;13.83;100.00;101376.81;5042428;28;20115;-74
2023/05/11 11:15:05;;;;;;;80.35;48.75;;;;;;;13.93;100.00;101378.94;5043345;28;20452;-74
2023/05/11 11:17:33;;;;;;;72.40;46.97;;;;;;;14.00;100.00;101371.50;5051618;28;20033;-74
2023/05/11 11:20:03;;;;;;;76.57;47.85;;;;;;;14.17;100.00;101362.63;5051736;28;20029;-74
2023/05/11 11:22:34;;;;;;;78.70;49.47;;;;;;;14.28;100.00;101371.84;5053050;28;20039;-76
2023/05/11 11:25:11;;;;;;;77.65;47.60;;;;;;;14.35;100.00;101373.41;5050198;28;20457;-73
2023/05/11 11:27:39;;;;;;;72.53;48.33;;;;;;;14.24;100.00;101368.78;5051516;28;20060;-75
2023/05/11 11:30:18;;;;;;;75.35;48.75;;;;;;;14.32;100.00;101373.88;5053008;28;20052;-76
2023/05/11 11:33:05;;;;;;;74.93;47.03;;;;;;;14.38;100.00;101360.38;5052512;28;20033;-75
2023/05/11 11:35:40;;;;;;;68.82;45.05;;;;;;;14.45;100.00;101372.00;5043790;28;20047;-75
2023/05/11 11:38:17;;;;;;;66.60;43.08;;;;;;;14.57;100.00;101369.22;5051790;28;20541;-76
2023/05/11 11:40:51;;;;;;;53.72;36.17;;;;;;;14.56;100.00;101373.03;5043624;28;20057;-72
2023/05/11 11:43:44;;;;;;;62.85;41.45;;;;;;;14.52;100.00;101365.34;5031674;28;20474;-75
2023/05/11 11:46:24;;;;;;;62.53;42.72;;;;;;;14.34;100.00;101365.47;5032743;28;20112;-75
2023/05/11 11:48:50;;;;;;;62.50;42.03;;;;;;;14.33;100.00;101361.91;5032794;28;20029;-75
2023/05/11 11:51:17;;;;;;;64.22;43.55;;;;;;;14.43;100.00;101363.22;5032672;28;20029;-73
2023/05/11 11:53:44;;;;;;;63.30;43.17;;;;;;;14.45;100.00;101361.09;5031070;28;20492;-73
2023/05/11 11:56:15;;;;;;;59.20;42.42;;;;;;;14.58;100.00;101360.81;5045813;28;20122;-72
2023/05/11 11:58:40;;;;;;;63.85;43.35;;;;;;;14.71;100.00;101355.16;5043400;28;20033;-77
2023/05/11 12:01:22;;;;;;;63.10;44.20;;;;;;;14.87;100.00;101356.31;5028013;28;20111;-76
2023/05/11 12:04:08;;;;;;;;;;;;;;;14.97;100.00;101363.03;5032896;28;20064;-75
2023/05/11 12:06:41;;;;;;;58.42;39.53;;;;;;;14.88;100.00;101359.84;5032251;28;19917;-75
2023/05/11 12:09:12;;;;;;;47.65;34.20;;;;;;;14.90;100.00;101363.19;5032378;28;20044;-77
2023/05/11 12:11:38;;;;;;;49.08;33.65;;;;;;;14.94;100.00;101364.34;5031929;28;20041;-77
2023/05/11 12:14:04;;;;;;;48.55;33.55;;;;;;;15.12;100.00;101359.78;5031684;28;20523;-78
2023/05/11 12:16:31;;;;;;;39.63;26.35;;;;;;;15.10;100.00;101362.75;5031800;28;20037;-77
2023/05/11 12:18:58;;;;;;;39.35;27.08;;;;;;;15.15;100.00;101370.19;5032502;28;20060;-73
2023/05/11 12:21:31;;;;;;;36.83;23.40;;;;;;;15.18;100.00;101365.06;5032430;28;20025;-75
2023/05/11 12:24:01;;;;;;;40.33;26.83;;;;;;;15.19;100.00;101366.75;5032012;28;20025;-74
2023/05/11 12:26:28;;;;;;;38.10;25.83;;;;;;;15.26;100.00;101361.13;5052228;28;20070;-74
2023/05/11 12:29:13;;;;;;;33.92;23.35;;;;;;;15.35;100.00;101359.69;5042548;28;20056;-75
2023/05/11 12:31:43;;;;;;;34.95;23.73;;;;;;;15.36;100.00;101366.78;5047558;28;20060;-74
2023/05/11 12:34:15;;;;;;;33.65;23.58;;;;;;;15.40;100.00;101357.03;5031666;28;20041;-74
2023/05/11 12:36:41;;;;;;;33.70;24.05;;;;;;;15.53;100.00;101352.34;5031790;28;20037;-77
2023/05/11 12:39:06;;;;;;;35.35;22.20;;;;;;;15.53;100.00;101353.16;5032733;28;20484;-72
2023/05/11 12:41:32;;;;;;;32.97;22.48;;;;;;;15.50;100.00;101344.66;5032071;28;20083;-73
2023/05/11 12:43:57;;;;;;;33.92;22.20;;;;;;;15.63;100.00;101346.25;5032248;28;20040;-74
2023/05/11 12:46:23;;;;;;;32.25;21.85;;;;;;;15.67;100.00;101345.50;5031039;28;20037;-75
2023/05/11 12:48:50;;;;;;;31.50;22.83;;;;;;;15.71;100.00;101351.28;5031978;28;20389;-76
2023/05/11 12:51:53;;;;;;;32.67;22.73;;;;;;;15.68;100.00;101351.78;5040818;28;20025;-74
2023/05/11 12:54:52;;;;;;;32.20;23.00;;;;;;;15.84;100.00;101345.53;5055821;28;20061;-77
2023/05/11 12:57:26;;;;;;;30.80;21.80;;;;;;;15.82;100.00;101344.97;5030192;28;20440;-77
2023/05/11 13:00:14;;;;;;;29.65;18.60;;;;;;;15.89;100.00;101342.06;5035529;28;20043;-73
2023/05/11 13:02:50;;;;;;;28.35;19.27;;;;;;;15.98;100.00;101335.09;5049026;28;20044;-73
2023/05/11 13:05:18;;;;;;;28.70;17.27;;;;;;;15.92;100.00;101325.19;5035187;28;20045;-75
2023/05/11 13:07:44;;;;;;;28.55;18.08;;;;;;;16.03;100.00;101329.72;5034086;28;20029;-76
2023/05/11 13:10:11;;;;;;;26.20;17.98;;;;;;;16.08;100.00;101332.53;5035182;28;20029;-78
2023/05/11 13:12:48;;;;;;;24.73;15.85;;;;;;;16.15;100.00;101337.00;5035179;28;20037;-74
2023/05/11 13:15:13;;;;;;;22.08;15.50;;;;;;;16.16;93.69;101335.94;5035447;28;20041;-76
2023/05/11 13:17:40;;;;;;;23.80;16.38;;;;;;;16.31;100.00;101322.50;5050757;28;20029;-76
2023/05/11 13:20:28;;;;;;;25.58;16.40;;;;;;;16.43;100.00;101330.56;5055041;28;20068;-74
2023/05/11 13:23:13;;;;;;;26.00;17.45;;;;;;;16.47;100.00;101324.34;5053880;28;20036;-77
2023/05/11 13:25:47;;;;;;;20.35;15.02;;;;;;;16.56;98.01;101324.75;5048558;28;20067;-74
2023/05/11 13:28:14;;;;;;;22.52;14.90;;;;;;;16.59;90.25;101318.78;5034453;28;20397;-75
2023/05/11 13:30:39;;;;;;;22.30;15.20;;;;;;;16.70;100.00;101317.00;5034841;28;20432;-75
2023/05/11 13:33:05;;;;;;;19.60;14.32;;;;;;;16.70;96.43;101324.34;5033447;28;20029;-75
2023/05/11 13:35:30;;;;;;;25.27;15.45;;;;;;;16.63;98.36;101319.91;5033793;28;20068;-75
2023/05/11 13:37:56;;;;;;;24.67;16.38;;;;;;;16.52;96.65;101323.59;5034859;28;20083;-75
2023/05/11 13:40:21;;;;;;;24.20;15.23;;;;;;;16.46;100.00;101322.69;5033762;28;20046;-76
2023/05/11 13:42:47;;;;;;;23.73;15.93;;;;;;;16.47;98.45;101316.16;5043928;28;20025;-76
2023/05/11 13:45:12;;;;;;;28.05;13.98;;;;;;;16.54;93.49;101309.69;5053565;28;20025;-74
2023/05/11 13:47:38;;;;;;;18.17;13.45;;;;;;;16.62;92.21;101312.81;5049734;28;20025;-76
2023/05/11 13:50:03;;;;;;;20.80;13.60;;;;;;;16.64;86.75;101318.81;5034387;28;20462;-76
2023/05/11 13:52:29;;;;;;;20.83;14.05;;;;;;;16.71;97.37;101306.88;5035120;28;20033;-74
2023/05/11 13:54:55;;;;;;;19.33;12.00;;;;;;;16.74;86.99;101309.94;5034546;28;20515;-76
2023/05/11 13:57:20;;;;;;;19.50;12.93;;;;;;;16.70;80.91;101308.78;5034400;28;20029;-74
2023/05/11 13:59:45;;;;;;;20.05;12.90;;;;;;;16.70;92.86;101300.59;5034133;28;20095;-76
2023/05/11 14:02:11;;;;;;;19.40;12.30;;;;;;;16.76;98.88;101301.50;5031384;28;20068;-74
2023/05/11 14:04:38;;;;;;;18.40;12.20;;;;;;;16.80;98.31;101302.59;5045048;28;20055;-76
2023/05/11 14:07:03;;;;;;;19.17;12.50;;;;;;;16.81;92.41;101305.06;5052946;28;20032;-74
2023/05/11 14:09:29;;;;;;;19.20;11.98;;;;;;;16.80;86.64;101297.97;5054478;28;20025;-75
2023/05/11 14:11:55;;;;;;;20.00;12.88;;;;;;;16.76;88.79;101302.31;5054276;28;20078;-74
2023/05/11 14:14:25;;;;;;;20.92;13.80;;;;;;;16.77;97.38;101298.50;5040270;28;20060;-76
2023/05/11 14:16:50;;;;;;;22.95;12.75;;;;;;;16.73;82.92;101302.81;5033075;28;20473;-77
2023/05/11 14:19:16;;;;;;;17.63;12.13;;;;;;;16.68;82.11;101294.53;5033999;28;20113;-75
2023/05/11 14:21:41;;;;;;;18.17;12.15;;;;;;;16.72;92.38;101298.41;5033991;28;20499;-74
2023/05/11 14:24:06;;;;;;;17.90;12.32;;;;;;;16.76;100.00;101296.84;5032784;28;20108;-77
2023/05/11 14:26:32;;;;;;;20.58;12.55;;;;;;;16.79;95.59;101300.97;5032588;28;20392;-75
2023/05/11 14:28:57;;;;;;;19.85;13.23;;;;;;;16.72;84.76;101301.16;5033976;28;20534;-78
2023/05/11 14:31:22;;;;;;;17.60;12.98;;;;;;;16.74;96.20;101290.81;5044841;28;20047;-76
2023/05/11 14:33:48;;;;;;;18.55;12.52;;;;;;;16.69;88.37;101289.91;5033885;28;20025;-76
2023/05/11 14:36:13;;;;;;;20.13;12.10;;;;;;;16.66;97.03;101288.50;5039936;28;20056;-76
2023/05/11 14:38:39;;;;;;;21.20;12.25;;;;;;;16.72;97.30;101287.47;5047000;28;20376;-75
2023/05/11 14:41:04;;;;;;;19.20;11.75;;;;;;;16.74;98.95;101281.75;5053529;28;20064;-76
2023/05/11 14:43:30;;;;;;;16.70;11.13;;;;;;;16.77;90.55;101287.56;5053660;28;20028;-75
2023/05/11 14:45:55;;;;;;;18.65;11.18;;;;;;;16.80;87.88;101292.50;5034275;28;20029;-75
2023/05/11 14:48:21;;;;;;;15.65;10.23;;;;;;;16.80;90.13;101291.66;5032943;28;20060;-75
2023/05/11 14:50:46;;;;;;;17.50;10.13;;;;;;;16.75;85.41;101289.72;5033751;28;20455;-76
2023/05/11 14:53:12;;;;;;;17.77;10.38;;;;;;;16.78;94.70;101289.19;5034345;28;20040;-75
2023/05/11 14:55:37;;;;;;;17.70;10.27;;;;;;;16.79;87.72;101296.31;5043990;28;20044;-76
2023/05/11 14:58:09;;;;;;;54.05;30.73;;;;;;;16.75;85.27;101288.88;5063371;28;20103;-76
2023/05/11 15:00:39;;;;;;;19.38;11.45;;;;;;;16.77;86.28;101284.84;5049841;28;20035;-75
2023/05/11 15:03:09;;;;;;;18.73;11.30;;;;;;;16.76;86.39;101291.38;5044616;28;20029;-75
2023/05/11 15:05:36;;;;;;;18.35;11.27;;;;;;;16.78;95.07;101286.47;5032396;28;20501;-76
2023/05/11 15:08:01;;;;;;;20.27;11.95;;;;;;;16.76;90.42;101288.63;5032115;28;20041;-76
2023/05/11 15:10:29;;;;;;;17.70;12.32;;;;;;;16.68;99.46;101294.53;5031799;28;20025;-75
2023/05/11 15:12:55;;;;;;;21.10;12.88;;;;;;;16.59;100.00;101294.19;5032991;28;20029;-77
2023/05/11 15:15:20;;;;;;;19.85;12.75;;;;;;;16.38;100.00;101295.81;5043176;28;20051;-75
2023/05/11 15:17:46;;;;;;;19.73;13.73;;;;;;;16.22;100.00;101292.06;5039397;28;20063;-77
2023/05/11 15:20:11;;;;;;;19.02;14.13;;;;;;;16.05;100.00;101292.09;5030999;28;20033;-77
2023/05/11 15:22:36;;;;;;;19.88;14.38;;;;;;;15.94;100.00;101293.00;5046939;28;20467;-75
2023/05/11 15:25:02;;;;;;;24.50;16.52;;;;;;;15.86;100.00;101298.91;5051281;28;20025;-78
2023/05/11 15:27:27;;;;;;;20.05;15.82;;;;;;;15.76;100.00;101300.38;5047138;28;20443;-75
2023/05/11 15:29:52;;;;;;;21.50;17.13;;;;;;;15.72;100.00;101309.31;5044361;28;20036;-74
2023/05/11 15:32:18;;;;;;;27.27;18.80;;;;;;;15.61;100.00;101302.84;5051492;28;20487;-74
2023/05/11 15:34:43;;;;;;;27.55;19.20;;;;;;;15.46;100.00;101303.41;5051824;28;20029;-78
2023/05/11 15:37:10;;;;;;;24.35;19.15;;;;;;;15.40;100.00;101305.22;5051396;28;20481;-76
2023/05/11 15:39:38;;;;;;;26.63;20.08;;;;;;;15.30;100.00;101313.22;5052830;28;20112;-74
2023/05/11 15:42:06;;;;;;;27.92;19.67;;;;;;;15.28;100.00;101309.94;5050326;28;20473;-76
2023/05/11 15:44:33;;;;;;;28.33;20.45;;;;;;;15.31;100.00;101314.03;5037927;28;20029;-77
2023/05/11 15:46:59;;;;;;;29.52;20.40;;;;;;;15.29;100.00;101310.75;5031773;28;20029;-78
2023/05/11 15:49:24;;;;;;;28.10;20.88;;;;;;;15.29;100.00;101316.19;5032018;28;20491;-78
2023/05/11 15:51:49;;;;;;;28.65;21.10;;;;;;;15.24;100.00;101306.84;5031622;28;20052;-77
2023/05/11 15:54:15;;;;;;;26.65;20.73;;;;;;;15.16;100.00;101317.34;5032952;28;20092;-77
2023/05/11 15:56:40;;;;;;;26.58;20.00;;;;;;;15.15;100.00;101312.94;5033132;28;20385;-75
2023/05/11 15:59:06;;;;;;;28.60;20.42;;;;;;;15.09;100.00;101317.47;5031818;28;20391;-78
2023/05/11 16:01:31;;;;;;;28.55;20.17;;;;;;;15.10;100.00;101319.13;5039129;28;20057;-75
